createdAt,value
2022-12-18T00:01:42.062Z,11.13
2022-12-18T00:04:19.134Z,11.93
2022-12-18T00:06:46.365Z,12.57
2022-12-18T00:09:15.556Z,12.68
2022-12-18T00:11:42.835Z,15.25
2022-12-18T00:14:11.583Z,12.20
2022-12-18T00:16:38.841Z,13.57
2022-12-18T00:19:07.715Z,11.38
2022-12-18T00:21:35.153Z,12.05
2022-12-18T00:24:02.369Z,12.98
2022-12-18T00:26:31.734Z,12.45
2022-12-18T00:29:00.653Z,10.85
2022-12-18T00:31:28.145Z,10.57
2022-12-18T00:33:55.835Z,12.65
2022-12-18T00:36:27.241Z,10.80
2022-12-18T00:38:55.421Z,10.77
2022-12-18T00:41:22.961Z,12.25
2022-12-18T00:43:50.224Z,11.93
2022-12-18T00:46:17.402Z,9.88
2022-12-18T00:48:44.580Z,10.40
2022-12-18T00:51:12.339Z,11.02
2022-12-18T00:53:41.001Z,11.18
2022-12-18T00:56:08.389Z,10.48
2022-12-18T00:58:35.505Z,10.82
2022-12-18T01:01:04.340Z,12.98
2022-12-18T01:03:31.463Z,10.10
2022-12-18T01:05:58.588Z,11.27
2022-12-18T01:08:26.087Z,10.20
2022-12-18T01:10:54.597Z,13.02
2022-12-18T01:13:21.808Z,12.77
2022-12-18T01:15:49.745Z,10.45
2022-12-18T01:18:16.858Z,10.88
2022-12-18T01:20:43.992Z,10.43
2022-12-18T01:23:11.105Z,11.05
2022-12-18T01:25:38.231Z,10.77
2022-12-18T01:28:06.744Z,10.43
2022-12-18T01:30:33.891Z,10.50
2022-12-18T01:33:00.997Z,9.70
2022-12-18T01:35:28.133Z,9.73
2022-12-18T01:37:55.413Z,11.93
2022-12-18T01:40:22.966Z,9.82
2022-12-18T01:42:52.049Z,11.40
2022-12-18T01:45:26.267Z,10.65
2022-12-18T01:50:24.385Z,11.25
2022-12-18T01:52:54.520Z,11.02
2022-12-18T01:55:24.607Z,10.98
2022-12-18T01:57:54.613Z,10.48
2022-12-18T02:03:18.443Z,10.73
2022-12-18T02:05:50.041Z,11.40
2022-12-18T02:08:22.158Z,9.85
2022-12-18T02:10:57.834Z,11.02
2022-12-18T02:13:33.096Z,9.07
2022-12-18T02:16:10.006Z,10.70
2022-12-18T02:18:41.990Z,9.73
2022-12-18T02:21:18.902Z,9.68
2022-12-18T02:23:57.215Z,9.95
2022-12-18T02:26:31.708Z,9.82
2022-12-18T02:29:04.461Z,9.75
2022-12-18T02:31:37.482Z,10.60
2022-12-18T02:34:07.125Z,9.68
2022-12-18T02:36:37.186Z,9.95
2022-12-18T02:39:06.945Z,9.95
2022-12-18T02:41:36.803Z,10.13
2022-12-18T02:44:10.544Z,10.05
2022-12-18T02:46:40.774Z,11.70
2022-12-18T02:49:20.821Z,9.77
2022-12-18T02:51:53.609Z,9.77
2022-12-18T02:54:51.378Z,9.07
2022-12-18T02:57:31.183Z,8.98
2022-12-18T03:00:04.674Z,10.05
2022-12-18T03:02:39.653Z,9.07
2022-12-18T03:05:14.241Z,8.65
2022-12-18T03:07:46.548Z,9.38
2022-12-18T03:10:17.629Z,8.65
2022-12-18T03:12:51.481Z,10.43
2022-12-18T03:15:23.570Z,9.85
2022-12-18T03:17:57.187Z,9.10
2022-12-18T03:20:26.902Z,10.50
2022-12-18T03:23:00.962Z,10.48
2022-12-18T03:25:31.857Z,9.40
2022-12-18T03:28:03.608Z,8.73
2022-12-18T03:30:33.903Z,9.82
2022-12-18T03:33:08.323Z,8.73
2022-12-18T03:38:05.571Z,9.38
2022-12-18T03:40:40.907Z,8.20
2022-12-18T03:43:17.195Z,9.05
2022-12-18T03:45:53.916Z,8.13
2022-12-18T03:48:30.551Z,8.68
2022-12-18T03:51:00.909Z,10.32
2022-12-18T03:53:36.139Z,8.85
2022-12-18T03:56:05.823Z,8.52
2022-12-18T03:58:38.324Z,8.15
2022-12-18T04:01:09.394Z,8.48
2022-12-18T04:03:37.196Z,9.27
2022-12-18T04:06:05.828Z,9.90
2022-12-18T04:08:34.062Z,8.15
2022-12-18T04:11:01.641Z,8.50
2022-12-18T04:13:30.385Z,7.75
2022-12-18T04:15:59.186Z,8.43
2022-12-18T04:18:26.409Z,8.88
2022-12-18T04:20:54.136Z,8.65
2022-12-18T04:23:21.506Z,9.02
2022-12-18T04:25:48.863Z,8.65
2022-12-18T04:28:15.976Z,9.75
2022-12-18T04:30:43.192Z,8.90
2022-12-18T04:33:13.473Z,9.27
2022-12-18T04:35:41.018Z,9.18
2022-12-18T04:38:08.840Z,9.52
2022-12-18T04:40:36.026Z,8.32
2022-12-18T04:43:03.455Z,10.05
2022-12-18T04:45:30.871Z,8.15
2022-12-18T04:47:58.259Z,8.85
2022-12-18T04:50:26.793Z,8.43
2022-12-18T04:52:54.090Z,9.63
2022-12-18T04:55:21.305Z,7.43
2022-12-18T04:57:48.455Z,8.93
2022-12-18T05:00:16.534Z,8.85
2022-12-18T05:02:43.803Z,8.18
2022-12-18T05:05:11.298Z,9.18
2022-12-18T05:07:40.105Z,8.95
2022-12-18T05:10:08.074Z,9.55
2022-12-18T05:12:35.208Z,7.93
2022-12-18T05:15:05.629Z,8.68
2022-12-18T05:17:32.724Z,7.43
2022-12-18T05:19:59.825Z,7.53
2022-12-18T05:22:26.949Z,7.68
2022-12-18T05:24:55.417Z,8.35
2022-12-18T05:27:22.599Z,8.60
2022-12-18T05:29:49.722Z,10.75
2022-12-18T05:32:16.819Z,7.00
2022-12-18T05:34:43.929Z,7.20
2022-12-18T05:37:11.074Z,7.55
2022-12-18T05:39:38.186Z,10.02
2022-12-18T05:42:06.677Z,10.07
2022-12-18T05:44:33.824Z,10.20
2022-12-18T05:47:01.026Z,7.45
2022-12-18T05:49:28.220Z,8.05
2022-12-18T05:51:55.338Z,7.28
2022-12-18T05:54:22.552Z,8.65
2022-12-18T05:56:49.666Z,8.40
2022-12-18T05:59:18.156Z,10.27
2022-12-18T06:01:45.296Z,10.55
2022-12-18T06:04:12.730Z,10.80
2022-12-18T06:06:39.907Z,9.20
2022-12-18T06:09:07.114Z,8.15
2022-12-18T06:11:36.701Z,8.18
2022-12-18T06:14:05.663Z,7.43
2022-12-18T06:16:34.209Z,9.60
2022-12-18T06:19:03.527Z,9.45
2022-12-18T06:21:31.932Z,7.53
2022-12-18T06:24:00.650Z,7.38
2022-12-18T06:26:28.690Z,10.70
2022-12-18T06:28:57.197Z,7.57
2022-12-18T06:31:25.035Z,10.00
2022-12-18T06:33:53.599Z,8.10
2022-12-18T06:36:20.933Z,7.90
2022-12-18T06:38:48.348Z,9.15
2022-12-18T06:41:17.397Z,9.55
2022-12-18T06:43:45.243Z,9.27
2022-12-18T06:46:12.814Z,10.95
2022-12-18T06:48:39.979Z,12.35
2022-12-18T06:51:08.653Z,14.38
2022-12-18T06:53:35.778Z,21.73
2022-12-18T06:56:09.418Z,23.77
2022-12-18T06:58:37.801Z,14.43
2022-12-18T07:01:08.322Z,15.55
2022-12-18T07:03:35.601Z,10.00
2022-12-18T07:06:03.139Z,11.02
2022-12-18T07:08:31.980Z,12.73
2022-12-18T07:10:59.391Z,12.43
2022-12-18T07:13:26.536Z,13.35
2022-12-18T07:15:53.688Z,9.27
2022-12-18T07:18:20.834Z,12.07
2022-12-18T07:20:48.058Z,9.13
2022-12-18T07:23:16.101Z,16.48
2022-12-18T07:25:44.776Z,13.13
2022-12-18T07:28:17.137Z,9.73
2022-12-18T07:30:44.556Z,8.52
2022-12-18T07:33:11.660Z,11.20
2022-12-18T07:35:38.770Z,8.82
2022-12-18T07:38:05.868Z,11.00
2022-12-18T07:40:33.034Z,8.23
2022-12-18T07:43:01.497Z,11.18
2022-12-18T07:45:28.673Z,10.45
2022-12-18T07:47:55.868Z,14.82
2022-12-18T07:50:23.020Z,12.15
2022-12-18T07:52:50.206Z,7.47
2022-12-18T07:55:17.408Z,11.45
2022-12-18T07:57:54.316Z,10.88
2022-12-18T08:00:24.998Z,15.68
2022-12-18T08:02:52.149Z,9.43
2022-12-18T08:05:19.529Z,14.50
2022-12-18T08:07:46.650Z,10.20
2022-12-18T08:10:14.277Z,9.30
2022-12-18T08:12:41.383Z,12.73
2022-12-18T08:15:10.063Z,10.23
2022-12-18T08:17:38.552Z,9.98
2022-12-18T08:20:06.772Z,11.93
2022-12-18T08:22:35.383Z,9.98
2022-12-18T08:25:02.806Z,8.50
2022-12-18T08:27:30.439Z,8.43
2022-12-18T08:29:57.849Z,8.82
2022-12-18T08:32:25.269Z,17.80
2022-12-18T08:34:53.830Z,11.27
2022-12-18T08:37:21.049Z,13.05
2022-12-18T08:39:48.146Z,10.18
2022-12-18T08:42:15.246Z,12.07
2022-12-18T08:44:42.366Z,10.40
2022-12-18T08:47:09.478Z,9.40
2022-12-18T08:49:37.290Z,8.73
2022-12-18T08:52:05.894Z,10.20
2022-12-18T08:54:33.055Z,11.40
2022-12-18T08:57:00.168Z,10.85
2022-12-18T08:59:27.329Z,15.27
2022-12-18T09:01:55.225Z,11.63
2022-12-18T09:04:22.695Z,8.73
2022-12-18T09:06:50.416Z,10.98
2022-12-18T09:09:18.908Z,9.68
2022-12-18T09:11:46.006Z,10.75
2022-12-18T09:14:13.172Z,8.88
2022-12-18T09:16:40.356Z,9.15
2022-12-18T09:19:07.525Z,9.13
2022-12-18T09:21:37.166Z,9.50
2022-12-18T09:24:08.785Z,11.18
2022-12-18T09:26:37.684Z,11.60
2022-12-18T09:29:05.109Z,9.85
2022-12-18T09:31:32.327Z,9.02
2022-12-18T09:33:59.500Z,11.68
2022-12-18T09:36:26.758Z,10.73
2022-12-18T09:38:53.899Z,11.27
2022-12-18T09:41:40.047Z,9.82
2022-12-18T09:44:19.534Z,10.23
2022-12-18T09:46:51.772Z,7.85
2022-12-18T09:49:22.911Z,8.25
2022-12-18T09:51:55.461Z,11.65
2022-12-18T09:54:26.618Z,10.20
2022-12-18T09:56:55.109Z,10.23
2022-12-18T09:59:26.355Z,14.13
2022-12-18T10:01:53.706Z,9.63
2022-12-18T10:04:21.002Z,10.38
2022-12-18T10:06:55.793Z,9.50
2022-12-18T10:09:32.098Z,9.70
2022-12-18T10:12:08.289Z,11.68
2022-12-18T10:14:44.009Z,11.13
2022-12-18T10:17:21.729Z,13.75
2022-12-18T10:19:53.739Z,11.85
2022-12-18T10:22:33.344Z,9.80
2022-12-18T10:25:04.808Z,13.60
2022-12-18T10:27:32.347Z,12.18
2022-12-18T10:30:05.402Z,8.60
2022-12-18T10:32:34.521Z,9.20
2022-12-18T10:35:01.641Z,11.57
2022-12-18T10:37:30.667Z,8.52
2022-12-18T10:40:16.835Z,10.38
2022-12-18T10:43:04.418Z,12.35
2022-12-18T10:45:32.886Z,12.65
2022-12-18T10:48:00.105Z,12.35
2022-12-18T10:50:53.972Z,9.88
2022-12-18T10:53:21.437Z,8.30
2022-12-18T10:55:50.010Z,14.60
2022-12-18T10:58:26.600Z,15.80
2022-12-18T11:01:07.210Z,14.95
2022-12-18T11:03:36.438Z,15.05
2022-12-18T11:06:06.777Z,17.35
2022-12-18T11:08:34.141Z,11.48
2022-12-18T11:11:01.645Z,11.10
2022-12-18T11:13:31.449Z,11.13
2022-12-18T11:15:59.456Z,16.50
2022-12-18T11:18:30.700Z,14.60
2022-12-18T11:21:00.505Z,16.42
2022-12-18T11:23:28.557Z,16.17
2022-12-18T11:25:58.619Z,15.02
2022-12-18T11:28:41.740Z,14.57
2022-12-18T11:31:21.984Z,11.77
2022-12-18T11:34:27.428Z,13.20
2022-12-18T11:36:47.404Z,13.23
2022-12-18T11:39:19.146Z,15.70
2022-12-18T11:41:54.242Z,12.75
2022-12-18T11:44:27.771Z,14.98
2022-12-18T11:47:01.444Z,15.63
2022-12-18T11:49:34.364Z,21.00
2022-12-18T11:52:06.025Z,17.88
2022-12-18T11:54:33.168Z,16.45
2022-12-18T11:57:12.232Z,20.60
2022-12-18T11:59:53.158Z,16.48
2022-12-18T12:02:42.554Z,15.68
2022-12-18T12:05:28.772Z,15.85
2022-12-18T12:08:02.602Z,15.20
2022-12-18T12:10:43.254Z,14.35
2022-12-18T12:13:24.702Z,16.45
2022-12-18T12:16:05.169Z,17.17
2022-12-18T12:18:43.972Z,14.88
2022-12-18T12:21:22.249Z,17.48
2022-12-18T12:23:59.493Z,19.30
2022-12-18T12:26:35.482Z,16.33
2022-12-18T12:29:21.291Z,14.45
2022-12-18T12:32:12.469Z,11.55
2022-12-18T12:34:52.624Z,15.18
2022-12-18T12:37:37.729Z,14.60
2022-12-18T12:40:26.725Z,13.02
2022-12-18T12:42:58.153Z,13.27
2022-12-18T12:45:34.214Z,13.85
2022-12-18T12:48:06.517Z,14.43
2022-12-18T12:50:35.343Z,13.07
2022-12-18T12:53:08.602Z,11.63
2022-12-18T12:55:35.994Z,13.10
2022-12-18T12:58:09.509Z,10.98
2022-12-18T13:00:44.729Z,10.75
2022-12-18T13:03:19.938Z,10.85
2022-12-18T13:05:51.165Z,12.40
2022-12-18T13:08:26.034Z,11.57
2022-12-18T13:10:55.542Z,13.60
2022-12-18T13:13:23.931Z,13.15
2022-12-18T13:16:05.992Z,10.13
2022-12-18T13:18:34.667Z,12.05
2022-12-18T13:21:15.495Z,10.43
2022-12-18T13:23:44.866Z,12.55
2022-12-18T13:26:32.337Z,12.48
2022-12-18T13:29:01.121Z,11.50
2022-12-18T13:32:08.146Z,9.80
2022-12-18T13:34:35.692Z,9.90
2022-12-18T13:37:40.386Z,14.25
2022-12-18T13:40:40.384Z,12.20
2022-12-18T13:43:25.274Z,11.82
2022-12-18T13:46:02.263Z,11.90
2022-12-18T13:48:32.506Z,10.35
2022-12-18T13:51:03.189Z,12.15
2022-12-18T13:53:43.285Z,14.32
2022-12-18T13:56:17.030Z,10.55
2022-12-18T13:58:45.629Z,9.10
2022-12-18T14:01:25.257Z,11.00
2022-12-18T14:04:09.337Z,12.02
2022-12-18T14:06:36.651Z,12.52
2022-12-18T14:09:04.180Z,11.13
2022-12-18T14:11:31.833Z,10.32
2022-12-18T14:14:01.718Z,10.27
2022-12-18T14:16:29.589Z,10.18
2022-12-18T14:19:02.217Z,10.52
2022-12-18T14:21:46.839Z,11.60
2022-12-18T14:24:19.667Z,11.30
2022-12-18T14:26:48.496Z,10.63
2022-12-18T14:29:27.238Z,13.40
2022-12-18T14:32:16.641Z,9.55
2022-12-18T14:34:45.478Z,10.50
2022-12-18T14:37:14.454Z,11.00
2022-12-18T14:39:52.471Z,7.97
2022-12-18T14:42:19.702Z,11.80
2022-12-18T14:45:13.039Z,10.35
2022-12-18T14:47:35.624Z,8.65
2022-12-18T14:50:02.817Z,9.32
2022-12-18T14:52:32.779Z,11.02
2022-12-18T14:54:59.949Z,11.35
2022-12-18T14:57:35.922Z,9.43
2022-12-18T15:00:07.757Z,9.43
2022-12-18T15:02:36.788Z,9.02
2022-12-18T15:05:12.673Z,10.55
2022-12-18T15:07:44.813Z,9.25
2022-12-18T15:10:15.741Z,10.35
2022-12-18T15:12:44.540Z,9.63
2022-12-18T15:15:48.335Z,11.38
2022-12-18T15:18:18.622Z,11.57
2022-12-18T15:20:49.276Z,9.05
2022-12-18T15:23:20.482Z,12.40
2022-12-18T15:25:49.578Z,9.43
2022-12-18T15:28:22.562Z,9.27
2022-12-18T15:31:00.698Z,9.60
2022-12-18T15:33:32.730Z,8.98
2022-12-18T15:36:00.834Z,8.23
2022-12-18T15:38:28.136Z,9.75
2022-12-18T15:40:55.736Z,11.10
2022-12-18T15:43:24.490Z,9.60
2022-12-18T15:45:51.635Z,9.32
2022-12-18T15:48:22.610Z,9.85
2022-12-18T15:50:53.429Z,9.88
2022-12-18T15:53:20.665Z,8.48
2022-12-18T15:55:47.811Z,9.60
2022-12-18T15:58:14.921Z,11.60
2022-12-18T16:00:43.195Z,10.80
2022-12-18T16:03:10.993Z,9.57
2022-12-18T16:05:38.215Z,11.60
2022-12-18T16:08:06.709Z,10.07
2022-12-18T16:10:33.862Z,9.50
2022-12-18T16:13:00.995Z,10.88
2022-12-18T16:15:28.102Z,10.55
2022-12-18T16:17:55.286Z,13.13
2022-12-18T16:20:23.089Z,9.82
2022-12-18T16:22:50.549Z,12.82
2022-12-18T16:25:21.222Z,9.75
2022-12-18T16:27:49.818Z,10.13
2022-12-18T16:30:19.686Z,10.45
2022-12-18T16:32:47.049Z,12.18
2022-12-18T16:35:16.523Z,10.45
2022-12-18T16:37:44.524Z,10.40
2022-12-18T16:40:13.398Z,12.18
2022-12-18T16:42:43.619Z,12.75
2022-12-18T16:45:12.581Z,10.60
2022-12-18T16:47:40.197Z,11.98
2022-12-18T16:50:08.008Z,9.77
2022-12-18T16:52:35.582Z,11.50
2022-12-18T16:55:03.199Z,10.18
2022-12-18T16:57:30.305Z,11.48
2022-12-18T17:00:04.470Z,12.48
2022-12-18T17:02:33.223Z,12.80
2022-12-18T17:05:00.917Z,10.60
2022-12-18T17:07:28.911Z,13.10
2022-12-18T17:09:56.680Z,17.75
2022-12-18T17:12:24.054Z,68.60
2022-12-18T17:14:51.165Z,46.50
2022-12-18T17:17:21.832Z,18.88
2022-12-18T17:19:50.595Z,39.03
2022-12-18T17:22:17.977Z,25.00
2022-12-18T17:24:46.615Z,22.20
2022-12-18T17:27:14.254Z,18.95
2022-12-18T17:29:47.402Z,19.77
2022-12-18T17:32:15.456Z,19.58
2022-12-18T17:34:44.035Z,18.50
2022-12-18T17:37:11.171Z,16.23
2022-12-18T17:39:38.861Z,17.80
2022-12-18T17:42:06.043Z,18.77
2022-12-18T17:44:35.071Z,16.45
2022-12-18T17:47:02.556Z,18.58
2022-12-18T17:49:29.819Z,16.17
2022-12-18T17:51:58.317Z,16.05
2022-12-18T17:54:25.457Z,14.38
2022-12-18T17:56:52.557Z,14.07
2022-12-18T17:59:19.708Z,16.50
2022-12-18T18:01:47.115Z,17.05
2022-12-18T18:04:15.253Z,13.95
2022-12-18T18:06:42.503Z,14.80
2022-12-18T18:09:16.662Z,13.90
2022-12-18T18:11:44.280Z,15.00
2022-12-18T18:14:13.778Z,14.45
2022-12-18T18:16:42.856Z,18.38
2022-12-18T18:19:12.667Z,15.43
2022-12-18T18:21:41.253Z,13.65
2022-12-18T18:24:09.346Z,14.48
2022-12-18T18:26:38.168Z,15.63
2022-12-18T18:29:06.644Z,17.77
2022-12-18T18:31:34.497Z,14.82
2022-12-18T18:34:07.303Z,13.98
2022-12-18T18:36:35.297Z,17.17
2022-12-18T18:39:02.662Z,14.70
2022-12-18T18:41:29.846Z,15.32
2022-12-18T18:43:58.821Z,13.93
2022-12-18T18:46:26.174Z,16.23
2022-12-18T18:48:53.494Z,14.23
2022-12-18T18:51:21.872Z,15.38
2022-12-18T18:53:51.272Z,14.93
2022-12-18T18:59:08.746Z,13.32
2022-12-18T19:01:35.944Z,14.68
2022-12-18T19:04:03.720Z,15.10
2022-12-18T19:06:31.233Z,17.23
2022-12-18T19:09:02.847Z,12.50
2022-12-18T19:11:35.923Z,12.10
2022-12-18T19:14:05.517Z,13.33
2022-12-18T19:16:35.338Z,13.40
2022-12-18T19:19:02.947Z,13.18
2022-12-18T19:21:31.368Z,14.18
2022-12-18T19:24:01.819Z,14.63
2022-12-18T19:26:29.151Z,15.27
2022-12-18T19:29:01.066Z,13.45
2022-12-18T19:31:34.853Z,14.57
2022-12-18T19:34:05.768Z,15.02
2022-12-18T19:36:34.634Z,13.13
2022-12-18T19:39:06.986Z,12.52
2022-12-18T19:41:34.184Z,12.95
2022-12-18T19:44:02.266Z,13.90
2022-12-18T19:46:35.560Z,11.45
2022-12-18T19:49:04.690Z,11.20
2022-12-18T19:51:32.460Z,12.25
2022-12-18T19:54:01.808Z,12.15
2022-12-18T19:56:31.663Z,12.10
2022-12-18T19:58:59.709Z,12.80
2022-12-18T20:01:29.341Z,13.57
2022-12-18T20:03:57.597Z,10.77
2022-12-18T20:06:29.268Z,13.88
2022-12-18T20:09:00.242Z,12.48
2022-12-18T20:11:28.718Z,13.65
2022-12-18T20:13:56.131Z,11.45
2022-12-18T20:16:23.551Z,13.05
2022-12-18T20:18:50.889Z,11.63
2022-12-18T20:21:20.924Z,11.70
2022-12-18T20:23:49.532Z,10.70
2022-12-18T20:26:16.787Z,11.07
2022-12-18T20:28:43.979Z,11.85
2022-12-18T20:31:13.463Z,13.90
2022-12-18T20:33:42.147Z,10.05
2022-12-18T20:36:13.705Z,9.55
2022-12-18T20:38:41.879Z,10.43
2022-12-18T20:41:12.009Z,10.77
2022-12-18T20:43:39.892Z,10.70
2022-12-18T20:46:09.786Z,12.18
2022-12-18T20:48:37.308Z,11.70
2022-12-18T20:51:06.788Z,11.52
2022-12-18T20:53:34.794Z,9.23
2022-12-18T20:56:06.655Z,10.10
2022-12-18T20:58:35.318Z,11.15
2022-12-18T21:01:04.318Z,11.48
2022-12-18T21:03:31.581Z,11.20
2022-12-18T21:05:58.779Z,10.65
2022-12-18T21:08:25.957Z,11.52
2022-12-18T21:10:53.216Z,13.90
2022-12-18T21:13:22.655Z,13.93
2022-12-18T21:15:53.583Z,10.68
2022-12-18T21:18:21.041Z,9.23
2022-12-18T21:20:48.381Z,11.63
2022-12-18T21:23:17.085Z,12.10
2022-12-18T21:25:45.681Z,12.43
2022-12-18T21:28:14.039Z,11.48
2022-12-18T21:30:41.344Z,14.18
2022-12-18T21:33:09.867Z,10.80
2022-12-18T21:35:36.975Z,10.00
2022-12-18T21:38:04.089Z,17.50
2022-12-18T21:40:33.309Z,10.02
2022-12-18T21:43:00.543Z,9.45
2022-12-18T21:45:27.701Z,11.32
2022-12-18T21:47:54.812Z,9.75
2022-12-18T21:50:23.356Z,12.20
2022-12-18T21:52:50.489Z,11.07
2022-12-18T21:55:17.644Z,11.52
2022-12-18T21:57:44.772Z,10.90
2022-12-18T22:00:18.255Z,11.02
2022-12-18T22:02:46.315Z,10.88
2022-12-18T22:05:13.647Z,10.38
2022-12-18T22:07:42.120Z,10.55
2022-12-18T22:10:09.785Z,9.57
2022-12-18T22:12:39.805Z,10.15
2022-12-18T22:15:21.154Z,9.55
2022-12-18T22:17:49.550Z,9.00
2022-12-18T22:20:17.524Z,10.98
2022-12-18T22:22:48.662Z,8.35
2022-12-18T22:25:16.058Z,10.27
2022-12-18T22:27:43.640Z,9.38
2022-12-18T22:30:11.748Z,11.75
2022-12-18T22:32:38.885Z,9.90
2022-12-18T22:35:12.680Z,8.50
2022-12-18T22:37:42.663Z,9.07
2022-12-18T22:40:23.942Z,9.38
2022-12-18T22:42:52.770Z,10.55
2022-12-18T22:45:19.920Z,8.80
2022-12-18T22:47:47.066Z,8.75
2022-12-18T22:50:14.980Z,10.63
2022-12-18T22:52:42.124Z,8.10
2022-12-18T22:55:10.837Z,8.60
2022-12-18T22:57:37.991Z,9.20
2022-12-18T23:00:07.764Z,9.32
2022-12-18T23:02:35.048Z,8.68
2022-12-18T23:05:02.269Z,9.40
2022-12-18T23:07:29.381Z,8.30
2022-12-18T23:10:00.788Z,9.60
2022-12-18T23:12:29.950Z,10.15
2022-12-18T23:14:57.231Z,8.68
2022-12-18T23:17:24.334Z,9.18
2022-12-18T23:19:51.617Z,8.55
2022-12-18T23:22:18.713Z,8.68
2022-12-18T23:24:46.482Z,8.40
2022-12-18T23:27:13.670Z,8.82
2022-12-18T23:29:42.146Z,7.78
2022-12-18T23:32:10.639Z,8.77
2022-12-18T23:34:37.757Z,9.82
2022-12-18T23:37:04.878Z,8.90
2022-12-18T23:39:31.981Z,9.48
2022-12-18T23:41:59.188Z,8.68
2022-12-18T23:44:26.523Z,8.35
2022-12-18T23:46:55.487Z,8.35
2022-12-18T23:49:23.035Z,8.25
2022-12-18T23:51:50.486Z,9.57
2022-12-18T23:54:17.590Z,7.55
2022-12-18T23:56:49.866Z,8.48
2022-12-18T23:59:18.517Z,8.82
